createdAt,value
2023-05-22T00:01:31.933Z,52.80
2023-05-22T00:03:58.465Z,53.00
2023-05-22T00:08:51.995Z,53.50
2023-05-22T00:11:18.494Z,53.40
2023-05-22T00:13:45.000Z,52.90
2023-05-22T00:16:11.489Z,54.00
2023-05-22T00:18:38.009Z,53.80
2023-05-22T00:21:04.524Z,53.80
2023-05-22T00:23:31.035Z,54.00
2023-05-22T00:25:57.545Z,53.30
2023-05-22T00:30:51.085Z,53.30
2023-05-22T00:33:17.680Z,53.80
2023-05-22T00:35:44.261Z,53.90
2023-05-22T00:38:10.752Z,53.50
2023-05-22T00:40:37.584Z,53.80
2023-05-22T00:43:04.274Z,52.90
2023-05-22T00:45:30.760Z,53.20
2023-05-22T00:47:57.330Z,53.10
2023-05-22T00:50:23.890Z,53.20
2023-05-22T00:52:50.409Z,53.10
2023-05-22T00:55:16.899Z,53.10
2023-05-22T00:57:43.383Z,54.20
2023-05-22T01:00:09.907Z,53.80
2023-05-22T01:02:36.554Z,53.20
2023-05-22T01:05:03.072Z,53.00
2023-05-22T01:07:29.557Z,53.00
2023-05-22T01:09:56.032Z,53.20
2023-05-22T01:12:22.554Z,53.30
2023-05-22T01:14:49.081Z,53.30
2023-05-22T01:17:15.599Z,53.30
2023-05-22T01:19:42.117Z,53.20
2023-05-22T01:22:08.640Z,53.00
2023-05-22T01:24:35.130Z,54.00
2023-05-22T01:27:01.635Z,53.10
2023-05-22T01:29:28.113Z,53.40
2023-05-22T01:31:54.624Z,53.60
2023-05-22T01:34:21.097Z,53.20
2023-05-22T01:36:47.570Z,53.10
2023-05-22T01:39:14.111Z,52.60
2023-05-22T01:41:40.630Z,53.20
2023-05-22T01:46:34.190Z,52.90
2023-05-22T01:49:00.717Z,53.10
2023-05-22T01:51:27.266Z,53.10
2023-05-22T01:53:53.738Z,53.00
2023-05-22T01:56:20.215Z,52.80
2023-05-22T01:58:46.722Z,53.00
2023-05-22T02:01:13.251Z,53.40
2023-05-22T02:03:39.896Z,52.90
2023-05-22T02:06:06.494Z,53.70
2023-05-22T02:08:33.026Z,52.90
2023-05-22T02:10:59.540Z,53.10
2023-05-22T02:13:26.038Z,53.10
2023-05-22T02:18:19.724Z,53.10
2023-05-22T02:20:46.217Z,49.70
2023-05-22T02:23:12.716Z,53.10
2023-05-22T02:25:39.200Z,53.10
2023-05-22T02:28:05.722Z,53.60
2023-05-22T02:30:32.252Z,53.00
2023-05-22T02:32:58.768Z,53.00
2023-05-22T02:35:25.272Z,53.60
2023-05-22T02:40:18.858Z,53.20
2023-05-22T02:42:45.392Z,53.20
2023-05-22T02:45:11.886Z,53.60
2023-05-22T02:47:38.466Z,53.00
2023-05-22T02:50:05.061Z,53.20
2023-05-22T02:52:31.585Z,53.10
2023-05-22T02:54:58.131Z,53.00
2023-05-22T02:57:24.620Z,53.10
2023-05-22T02:59:51.121Z,53.10
2023-05-22T03:02:17.612Z,54.10
2023-05-22T03:04:44.148Z,53.70
2023-05-22T03:07:10.670Z,53.20
2023-05-22T03:09:37.228Z,53.70
2023-05-22T03:14:30.787Z,53.20
2023-05-22T03:16:57.331Z,53.20
2023-05-22T03:19:24.031Z,53.20
2023-05-22T03:21:50.715Z,53.30
2023-05-22T03:24:17.239Z,53.20
2023-05-22T03:26:43.774Z,53.70
2023-05-22T03:29:10.427Z,53.20
2023-05-22T03:31:37.009Z,53.20
2023-05-22T03:34:03.590Z,53.40
2023-05-22T03:36:32.437Z,53.20
2023-05-22T03:38:59.028Z,53.20
2023-05-22T03:46:19.719Z,52.90
2023-05-22T03:48:46.281Z,53.40
2023-05-22T03:51:12.811Z,53.10
2023-05-22T03:53:39.317Z,53.20
2023-05-22T03:56:05.835Z,53.30
2023-05-22T03:58:32.341Z,53.30
2023-05-22T04:00:58.849Z,53.40
2023-05-22T04:03:25.569Z,53.30
2023-05-22T04:05:52.157Z,53.20
2023-05-22T04:08:18.641Z,53.10
2023-05-22T04:10:45.205Z,53.30
2023-05-22T04:15:38.871Z,53.30
2023-05-22T04:18:05.469Z,53.20
2023-05-22T04:20:32.046Z,53.20
2023-05-22T04:22:58.535Z,53.30
2023-05-22T04:25:25.049Z,53.20
2023-05-22T04:27:51.543Z,53.90
2023-05-22T04:30:18.078Z,53.40
2023-05-22T04:32:44.676Z,53.10
2023-05-22T04:35:11.189Z,53.80
2023-05-22T04:37:37.729Z,52.60
2023-05-22T04:40:04.274Z,53.10
2023-05-22T04:42:30.812Z,53.60
2023-05-22T04:44:57.309Z,53.30
2023-05-22T04:47:23.861Z,53.30
2023-05-22T04:49:50.405Z,53.10
2023-05-22T04:52:16.908Z,53.00
2023-05-22T04:54:43.430Z,53.60
2023-05-22T04:57:09.905Z,53.30
2023-05-22T04:59:36.398Z,53.50
2023-05-22T05:02:02.876Z,54.10
2023-05-22T05:04:29.346Z,53.60
2023-05-22T05:06:55.878Z,53.60
2023-05-22T05:09:22.373Z,54.10
2023-05-22T05:11:48.865Z,53.50
2023-05-22T05:14:15.378Z,53.20
2023-05-22T05:16:41.909Z,53.20
2023-05-22T05:21:35.571Z,53.10
2023-05-22T05:24:02.106Z,54.40
2023-05-22T05:26:28.639Z,52.90
2023-05-22T05:28:55.153Z,53.10
2023-05-22T05:31:21.705Z,53.70
2023-05-22T05:33:48.229Z,53.80
2023-05-22T05:36:14.769Z,54.20
2023-05-22T05:38:41.291Z,54.30
2023-05-22T05:41:07.806Z,53.20
2023-05-22T05:43:34.381Z,54.00
2023-05-22T05:46:00.915Z,54.70
2023-05-22T05:48:27.446Z,54.30
2023-05-22T05:50:58.430Z,54.80
2023-05-22T05:53:24.953Z,54.70
2023-05-22T05:55:51.439Z,54.80
2023-05-22T05:58:17.953Z,53.80
2023-05-22T06:00:44.483Z,54.10
2023-05-22T06:03:11.061Z,54.00
2023-05-22T06:05:37.680Z,54.70
2023-05-22T06:08:04.220Z,53.90
2023-05-22T06:10:30.737Z,54.30
2023-05-22T06:12:57.230Z,53.90
2023-05-22T06:15:23.733Z,54.00
2023-05-22T06:17:50.301Z,54.00
2023-05-22T06:20:16.863Z,54.60
2023-05-22T06:22:43.399Z,53.90
2023-05-22T06:25:09.958Z,53.90
2023-05-22T06:27:36.528Z,54.70
2023-05-22T06:30:04.642Z,54.70
2023-05-22T06:32:31.706Z,54.00
2023-05-22T06:34:58.437Z,53.80
2023-05-22T06:37:24.949Z,54.50
2023-05-22T06:39:51.452Z,54.40
2023-05-22T06:42:17.988Z,54.10
2023-05-22T06:44:44.495Z,54.20
2023-05-22T06:47:11.014Z,54.60
2023-05-22T06:49:37.509Z,54.10
2023-05-22T06:52:05.297Z,54.30
2023-05-22T06:54:32.050Z,54.70
2023-05-22T06:56:58.566Z,54.30
2023-05-22T06:59:25.081Z,54.40
2023-05-22T07:01:51.612Z,54.80
2023-05-22T07:04:18.127Z,54.10
2023-05-22T07:06:44.604Z,54.10
2023-05-22T07:09:11.141Z,54.80
2023-05-22T07:11:37.730Z,54.20
2023-05-22T07:14:04.256Z,54.80
2023-05-22T07:16:30.822Z,54.40
2023-05-22T07:18:57.388Z,54.30
2023-05-22T07:21:23.975Z,54.80
2023-05-22T07:23:50.495Z,54.20
2023-05-22T07:26:17.013Z,54.20
2023-05-22T07:28:43.538Z,54.20
2023-05-22T07:31:10.113Z,55.90
2023-05-22T07:33:36.656Z,54.20
2023-05-22T07:36:03.159Z,55.40
2023-05-22T07:38:29.681Z,54.20
2023-05-22T07:40:56.183Z,54.70
2023-05-22T07:43:22.702Z,54.50
2023-05-22T07:45:49.226Z,54.50
2023-05-22T07:48:15.828Z,54.30
2023-05-22T07:50:42.406Z,54.40
2023-05-22T07:53:08.935Z,54.10
2023-05-22T07:55:35.428Z,54.20
2023-05-22T07:58:01.953Z,54.60
2023-05-22T08:00:28.495Z,54.40
2023-05-22T08:02:55.081Z,54.50
2023-05-22T08:05:21.813Z,54.40
2023-05-22T08:07:48.375Z,54.80
2023-05-22T08:10:14.855Z,54.50
2023-05-22T08:12:41.365Z,54.20
2023-05-22T08:15:07.921Z,54.30
2023-05-22T08:17:35.057Z,54.50
2023-05-22T08:20:01.951Z,54.90
2023-05-22T08:22:28.547Z,54.40
2023-05-22T08:24:55.071Z,54.20
2023-05-22T08:27:21.577Z,54.40
2023-05-22T08:29:48.150Z,55.10
2023-05-22T08:32:14.672Z,54.40
2023-05-22T08:37:08.215Z,54.10
2023-05-22T08:39:34.744Z,54.20
2023-05-22T08:42:01.258Z,54.80
2023-05-22T08:44:27.747Z,54.90
2023-05-22T08:46:54.309Z,54.90
2023-05-22T08:49:21.720Z,54.50
2023-05-22T08:51:48.359Z,54.30
2023-05-22T08:54:14.884Z,54.30
2023-05-22T08:56:53.104Z,54.10
2023-05-22T08:59:23.092Z,54.90
2023-05-22T09:01:49.642Z,53.70
2023-05-22T09:04:16.342Z,54.60
2023-05-22T09:06:42.841Z,54.00
2023-05-22T09:09:09.389Z,54.50
2023-05-22T09:11:35.945Z,54.60
2023-05-22T09:16:29.582Z,54.20
2023-05-22T09:18:56.106Z,55.10
2023-05-22T09:23:55.120Z,55.30
2023-05-22T09:26:21.793Z,54.90
2023-05-22T09:28:48.344Z,54.60
2023-05-22T09:31:14.909Z,54.80
2023-05-22T09:33:41.401Z,54.30
2023-05-22T09:36:07.965Z,54.80
2023-05-22T09:38:34.447Z,54.90
2023-05-22T09:41:00.988Z,54.50
2023-05-22T09:43:27.504Z,55.00
2023-05-22T09:45:54.050Z,55.00
2023-05-22T09:48:20.584Z,54.10
2023-05-22T09:50:47.110Z,54.70
2023-05-22T09:53:13.630Z,54.90
2023-05-22T09:58:07.181Z,54.30
2023-05-22T10:00:33.672Z,54.30
2023-05-22T10:03:00.209Z,54.20
2023-05-22T10:05:26.841Z,54.70
2023-05-22T10:07:53.379Z,54.90
2023-05-22T10:10:19.923Z,54.80
2023-05-22T10:12:46.471Z,54.90
2023-05-22T10:15:13.001Z,54.80
2023-05-22T10:17:39.558Z,54.10
2023-05-22T10:20:06.098Z,54.00
2023-05-22T10:22:32.626Z,54.20
2023-05-22T10:24:59.108Z,54.40
2023-05-22T10:27:25.628Z,53.90
2023-05-22T10:29:52.185Z,54.10
2023-05-22T10:32:18.766Z,54.80
2023-05-22T10:34:45.252Z,54.00
2023-05-22T10:37:17.012Z,54.40
2023-05-22T10:39:44.769Z,54.70
2023-05-22T10:42:11.283Z,54.20
2023-05-22T10:44:37.790Z,53.90
2023-05-22T10:47:04.290Z,54.20
2023-05-22T10:49:30.787Z,54.10
2023-05-22T10:51:57.376Z,54.30
2023-05-22T10:54:24.002Z,54.80
2023-05-22T10:56:50.521Z,54.50
2023-05-22T10:59:17.046Z,54.10
2023-05-22T11:01:43.576Z,54.70
2023-05-22T11:04:10.119Z,54.10
2023-05-22T11:06:36.706Z,54.50
2023-05-22T11:09:03.264Z,54.60
2023-05-22T11:11:29.764Z,54.60
2023-05-22T11:13:56.265Z,54.60
2023-05-22T11:16:22.803Z,54.10
2023-05-22T11:18:49.365Z,54.60
2023-05-22T11:21:15.896Z,54.50
2023-05-22T11:23:42.391Z,54.50
2023-05-22T11:26:08.906Z,54.10
2023-05-22T11:28:35.465Z,54.30
2023-05-22T11:31:02.063Z,54.00
2023-05-22T11:33:28.584Z,53.90
2023-05-22T11:35:55.111Z,54.50
2023-05-22T11:38:21.610Z,54.60
2023-05-22T11:40:48.126Z,53.50
2023-05-22T11:43:14.655Z,54.40
2023-05-22T11:45:41.194Z,54.30
2023-05-22T11:48:07.728Z,54.50
2023-05-22T11:50:42.178Z,54.50
2023-05-22T11:53:09.292Z,53.70
2023-05-22T11:55:35.816Z,54.80
2023-05-22T11:58:02.366Z,54.40
2023-05-22T12:00:29.018Z,54.50
2023-05-22T12:02:55.688Z,54.20
2023-05-22T12:05:22.247Z,53.90
2023-05-22T12:07:48.753Z,53.90
2023-05-22T12:10:15.269Z,53.80
2023-05-22T12:12:41.828Z,54.00
2023-05-22T12:15:08.351Z,54.50
2023-05-22T12:17:34.924Z,54.40
2023-05-22T12:20:01.427Z,54.70
2023-05-22T12:22:27.933Z,53.80
2023-05-22T12:24:54.443Z,54.70
2023-05-22T12:27:20.971Z,54.70
2023-05-22T12:29:47.573Z,54.70
2023-05-22T12:32:14.919Z,54.50
2023-05-22T12:34:41.585Z,54.90
2023-05-22T12:37:08.114Z,54.20
2023-05-22T12:39:34.658Z,54.50
2023-05-22T12:42:01.145Z,54.20
2023-05-22T12:44:27.764Z,53.90
2023-05-22T12:46:54.328Z,54.10
2023-05-22T12:49:20.898Z,54.30
2023-05-22T12:51:47.409Z,55.00
2023-05-22T12:54:13.939Z,54.20
2023-05-22T12:56:40.431Z,54.70
2023-05-22T12:59:06.987Z,55.00
2023-05-22T13:01:33.516Z,54.80
2023-05-22T13:04:00.126Z,54.90
2023-05-22T13:06:27.936Z,56.00
2023-05-22T13:08:55.599Z,56.60
2023-05-22T13:11:22.091Z,55.50
2023-05-22T13:13:48.661Z,55.00
2023-05-22T13:18:42.263Z,55.80
2023-05-22T13:21:08.797Z,55.80
2023-05-22T13:23:35.290Z,55.50
2023-05-22T13:26:01.824Z,55.80
2023-05-22T13:28:28.328Z,56.20
2023-05-22T13:30:54.867Z,55.90
2023-05-22T13:33:21.405Z,55.60
2023-05-22T13:35:47.950Z,56.30
2023-05-22T13:38:14.444Z,55.90
2023-05-22T13:40:40.975Z,55.80
2023-05-22T13:43:07.490Z,56.40
2023-05-22T13:45:34.016Z,55.60
2023-05-22T13:48:00.570Z,56.20
2023-05-22T13:52:54.124Z,56.50
2023-05-22T13:55:20.653Z,55.90
2023-05-22T13:57:47.153Z,56.40
2023-05-22T14:00:13.644Z,55.50
2023-05-22T14:02:40.211Z,55.60
2023-05-22T14:05:06.759Z,55.50
2023-05-22T14:07:33.241Z,55.90
2023-05-22T14:10:01.380Z,55.30
2023-05-22T14:12:28.291Z,55.40
2023-05-22T14:14:54.824Z,56.00
2023-05-22T14:17:21.369Z,55.40
2023-05-22T14:22:14.934Z,55.90
2023-05-22T14:24:41.432Z,56.20
2023-05-22T14:27:07.937Z,55.90
2023-05-22T14:29:34.545Z,56.20
2023-05-22T14:34:28.116Z,56.00
2023-05-22T14:36:54.644Z,56.20
2023-05-22T14:39:21.134Z,56.30
2023-05-22T14:41:47.629Z,56.20
2023-05-22T14:44:14.183Z,56.50
2023-05-22T14:46:40.815Z,55.80
2023-05-22T14:49:07.441Z,56.40
2023-05-22T14:51:33.992Z,56.20
2023-05-22T14:54:00.606Z,55.40
2023-05-22T14:56:27.096Z,56.60
2023-05-22T14:58:53.604Z,56.60
2023-05-22T15:01:20.131Z,55.50
2023-05-22T15:03:46.684Z,55.90
2023-05-22T15:06:13.195Z,56.40
2023-05-22T15:08:39.708Z,56.20
2023-05-22T15:11:06.200Z,55.90
2023-05-22T15:13:32.745Z,56.60
2023-05-22T15:15:59.275Z,55.90
2023-05-22T15:18:25.863Z,56.50
2023-05-22T15:20:52.754Z,56.50
2023-05-22T15:23:19.294Z,56.40
2023-05-22T15:25:45.828Z,56.10
2023-05-22T15:28:12.333Z,55.70
2023-05-22T15:30:38.877Z,55.90
2023-05-22T15:33:05.432Z,55.90
2023-05-22T15:35:32.030Z,55.80
2023-05-22T15:37:58.697Z,55.90
2023-05-22T15:40:25.232Z,55.80
2023-05-22T15:42:51.768Z,55.80
2023-05-22T15:45:18.254Z,55.80
2023-05-22T15:47:44.824Z,56.30
2023-05-22T15:50:11.350Z,55.90
2023-05-22T15:52:37.935Z,55.90
2023-05-22T15:55:04.456Z,55.50
2023-05-22T15:57:31.016Z,55.70
2023-05-22T15:59:57.577Z,55.90
2023-05-22T16:02:24.092Z,55.70
2023-05-22T16:04:50.656Z,55.20
2023-05-22T16:07:17.190Z,55.50
2023-05-22T16:09:43.698Z,56.30
2023-05-22T16:12:10.282Z,55.90
2023-05-22T16:14:36.920Z,55.50
2023-05-22T16:17:03.427Z,55.60
2023-05-22T16:19:30.016Z,55.70
2023-05-22T16:21:56.561Z,56.10
2023-05-22T16:24:23.086Z,55.80
2023-05-22T16:26:49.608Z,56.10
2023-05-22T16:29:16.120Z,55.60
2023-05-22T16:31:42.858Z,55.90
2023-05-22T16:34:09.418Z,56.20
2023-05-22T16:36:35.898Z,56.20
2023-05-22T16:39:02.412Z,56.70
2023-05-22T16:41:28.949Z,56.40
2023-05-22T16:43:55.489Z,55.80
2023-05-22T16:46:22.087Z,55.60
2023-05-22T16:48:48.690Z,57.40
2023-05-22T16:51:15.217Z,57.60
2023-05-22T16:53:41.833Z,56.90
2023-05-22T16:56:08.401Z,57.60
2023-05-22T16:58:34.918Z,57.60
2023-05-22T17:01:01.692Z,58.40
2023-05-22T17:03:28.339Z,57.50
2023-05-22T17:05:55.132Z,58.10
2023-05-22T17:08:21.650Z,57.80
2023-05-22T17:10:48.132Z,56.90
2023-05-22T17:13:14.616Z,56.80
2023-05-22T17:15:41.334Z,57.10
2023-05-22T17:18:08.009Z,57.20
2023-05-22T17:20:34.507Z,56.30
2023-05-22T17:23:01.043Z,56.70
2023-05-22T17:25:27.565Z,56.10
2023-05-22T17:30:21.168Z,56.40
2023-05-22T17:32:47.717Z,57.40
2023-05-22T17:35:14.259Z,56.90
2023-05-22T17:37:40.757Z,56.30
2023-05-22T17:40:07.279Z,56.90
2023-05-22T17:42:33.767Z,58.20
2023-05-22T17:45:00.282Z,59.80
2023-05-22T17:47:26.833Z,59.40
2023-05-22T17:49:53.389Z,60.00
2023-05-22T17:52:20.144Z,61.20
2023-05-22T17:54:46.678Z,61.20
2023-05-22T17:57:13.228Z,61.50
2023-05-22T17:59:40.557Z,60.90
2023-05-22T18:02:07.166Z,59.80
2023-05-22T18:04:33.687Z,61.20
2023-05-22T18:07:00.488Z,60.80
2023-05-22T18:09:27.413Z,61.90
2023-05-22T18:11:53.979Z,61.60
2023-05-22T18:14:20.521Z,63.40
2023-05-22T18:16:47.035Z,64.00
2023-05-22T18:19:13.575Z,61.60
2023-05-22T18:21:40.082Z,61.50
2023-05-22T18:24:06.635Z,62.50
2023-05-22T18:26:33.132Z,62.40
2023-05-22T18:28:59.667Z,61.80
2023-05-22T18:31:26.226Z,61.20
2023-05-22T18:33:52.828Z,60.60
2023-05-22T18:36:19.312Z,60.70
2023-05-22T18:38:45.839Z,61.60
2023-05-22T18:41:12.346Z,60.50
2023-05-22T18:43:38.883Z,61.20
2023-05-22T18:46:05.419Z,60.90
2023-05-22T18:48:31.950Z,60.40
2023-05-22T18:51:00.516Z,59.30
2023-05-22T18:53:27.006Z,60.10
2023-05-22T18:55:53.503Z,60.00
2023-05-22T18:58:20.002Z,60.00
2023-05-22T19:00:46.545Z,59.30
2023-05-22T19:03:13.085Z,59.20
2023-05-22T19:05:39.772Z,59.80
2023-05-22T19:08:06.291Z,59.90
2023-05-22T19:10:32.852Z,59.00
2023-05-22T19:12:59.375Z,59.00
2023-05-22T19:15:25.896Z,59.30
2023-05-22T19:17:52.479Z,59.80
2023-05-22T19:20:19.068Z,59.90
2023-05-22T19:22:45.576Z,58.60
2023-05-22T19:25:12.101Z,59.10
2023-05-22T19:27:39.471Z,59.40
2023-05-22T19:30:06.164Z,58.80
2023-05-22T19:32:32.693Z,58.60
2023-05-22T19:34:59.180Z,59.30
2023-05-22T19:37:25.697Z,58.50
2023-05-22T19:39:52.239Z,58.80
2023-05-22T19:42:18.753Z,58.70
2023-05-22T19:44:45.272Z,58.70
2023-05-22T19:47:11.764Z,59.30
2023-05-22T19:49:38.245Z,59.20
2023-05-22T19:52:04.777Z,59.00
2023-05-22T19:54:31.323Z,59.00
2023-05-22T19:56:57.838Z,58.30
2023-05-22T19:59:24.400Z,58.80
2023-05-22T20:01:52.883Z,58.10
2023-05-22T20:04:20.310Z,58.40
2023-05-22T20:06:46.929Z,58.80
2023-05-22T20:09:13.452Z,58.80
2023-05-22T20:11:39.965Z,57.90
2023-05-22T20:14:06.473Z,57.90
2023-05-22T20:16:33.033Z,58.40
2023-05-22T20:18:59.583Z,58.10
2023-05-22T20:21:26.096Z,58.60
2023-05-22T20:23:52.609Z,58.80
2023-05-22T20:26:19.120Z,58.70
2023-05-22T20:28:45.651Z,59.30
2023-05-22T20:31:12.168Z,58.80
2023-05-22T20:33:38.703Z,58.00
2023-05-22T20:36:05.369Z,58.30
2023-05-22T20:38:31.927Z,58.40
2023-05-22T20:40:58.430Z,58.10
2023-05-22T20:43:24.946Z,58.00
2023-05-22T20:45:51.499Z,58.50
2023-05-22T20:48:18.081Z,58.70
2023-05-22T20:50:44.593Z,58.40
2023-05-22T20:53:11.102Z,58.40
2023-05-22T20:55:37.772Z,58.40
2023-05-22T20:58:04.393Z,58.50
2023-05-22T21:00:30.946Z,57.60
2023-05-22T21:02:58.476Z,58.10
2023-05-22T21:07:52.270Z,57.60
2023-05-22T21:10:18.837Z,57.90
2023-05-22T21:12:45.372Z,57.90
2023-05-22T21:15:11.885Z,58.40
2023-05-22T21:17:38.433Z,57.80
2023-05-22T21:20:04.955Z,57.50
2023-05-22T21:22:31.495Z,58.10
2023-05-22T21:24:58.021Z,57.60
2023-05-22T21:29:51.600Z,57.50
2023-05-22T21:32:18.119Z,57.20
2023-05-22T21:37:11.795Z,57.50
2023-05-22T21:39:38.320Z,57.40
2023-05-22T21:42:04.842Z,57.40
2023-05-22T21:44:31.368Z,57.40
2023-05-22T21:46:57.979Z,57.90
2023-05-22T21:49:24.561Z,57.20
2023-05-22T21:51:51.039Z,57.30
2023-05-22T21:54:17.527Z,57.90
2023-05-22T21:56:44.005Z,57.50
2023-05-22T21:59:10.555Z,57.90
2023-05-22T22:01:37.151Z,57.30
2023-05-22T22:04:03.822Z,57.70
2023-05-22T22:06:30.493Z,57.70
2023-05-22T22:08:56.997Z,57.00
2023-05-22T22:11:23.479Z,57.10
2023-05-22T22:13:49.986Z,57.60
2023-05-22T22:16:16.490Z,57.70
2023-05-22T22:18:43.078Z,57.50
2023-05-22T22:21:09.584Z,56.80
2023-05-22T22:23:36.089Z,57.00
2023-05-22T22:26:02.639Z,56.60
2023-05-22T22:28:29.190Z,56.80
2023-05-22T22:30:55.713Z,56.50
2023-05-22T22:33:22.236Z,56.90
2023-05-22T22:35:48.740Z,57.40
2023-05-22T22:38:15.261Z,57.60
2023-05-22T22:40:42.066Z,57.30
2023-05-22T22:43:08.835Z,56.50
2023-05-22T22:45:35.404Z,56.20
2023-05-22T22:48:01.996Z,57.00
2023-05-22T22:50:28.503Z,56.50
2023-05-22T22:52:55.007Z,56.20
2023-05-22T22:55:21.499Z,57.20
2023-05-22T22:57:48.305Z,56.40
2023-05-22T23:00:14.809Z,56.70
2023-05-22T23:02:41.372Z,56.40
2023-05-22T23:05:07.958Z,56.00
2023-05-22T23:07:34.616Z,56.80
2023-05-22T23:10:01.174Z,56.70
2023-05-22T23:12:27.699Z,56.80
2023-05-22T23:14:54.684Z,56.70
2023-05-22T23:17:21.186Z,56.10
2023-05-22T23:19:47.685Z,56.90
2023-05-22T23:22:14.231Z,56.70
2023-05-22T23:24:40.764Z,56.60
2023-05-22T23:27:07.273Z,56.70
2023-05-22T23:29:33.788Z,56.60
2023-05-22T23:32:00.594Z,56.00
2023-05-22T23:34:27.294Z,55.80
2023-05-22T23:36:53.832Z,56.60
2023-05-22T23:39:20.344Z,56.60
2023-05-22T23:41:46.875Z,56.60
2023-05-22T23:44:13.402Z,56.60
2023-05-22T23:46:40.026Z,56.70
2023-05-22T23:49:06.531Z,56.50
2023-05-22T23:51:33.043Z,56.10
2023-05-22T23:53:59.553Z,55.60
2023-05-22T23:56:26.068Z,56.20
2023-05-22T23:58:52.561Z,56.00
